sensor_id;sensor_type;location;lat;lon;timestamp;pressure;altitude;pressure_sealevel;temperature
63158;BMP280;49381;49.338;8.794;2022-11-18T00:01:33;98453.91;;;11.09
63158;BMP280;49381;49.338;8.794;2022-11-18T00:03:33;98457.44;;;11.02
63158;BMP280;49381;49.338;8.794;2022-11-18T00:05:34;98457.44;;;11.02
63158;BMP280;49381;49.338;8.794;2022-11-18T00:07:34;98449.72;;;11.06
63158;BMP280;49381;49.338;8.794;2022-11-18T00:09:36;98447.91;;;11.11
63158;BMP280;49381;49.338;8.794;2022-11-18T00:11:36;98449.63;;;11.11
63158;BMP280;49381;49.338;8.794;2022-11-18T00:13:37;98442.84;;;11.11
63158;BMP280;49381;49.338;8.794;2022-11-18T00:15:37;98458.88;;;11.12
63158;BMP280;49381;49.338;8.794;2022-11-18T00:17:38;98450.53;;;11.08
63158;BMP280;49381;49.338;8.794;2022-11-18T00:19:39;98452.16;;;11.11
63158;BMP280;49381;49.338;8.794;2022-11-18T00:21:39;98448.66;;;11.15
63158;BMP280;49381;49.338;8.794;2022-11-18T00:23:40;98445.19;;;11.19
63158;BMP280;49381;49.338;8.794;2022-11-18T00:25:41;98444.31;;;11.20
63158;BMP280;49381;49.338;8.794;2022-11-18T00:27:42;98445.22;;;11.17
63158;BMP280;49381;49.338;8.794;2022-11-18T00:29:42;98449.50;;;11.15
63158;BMP280;49381;49.338;8.794;2022-11-18T00:31:42;98448.63;;;11.16
63158;BMP280;49381;49.338;8.794;2022-11-18T00:33:43;98446.09;;;11.16
63158;BMP280;49381;49.338;8.794;2022-11-18T00:35:43;98442.69;;;11.17
63158;BMP280;49381;49.338;8.794;2022-11-18T00:37:43;98454.47;;;11.18
63158;BMP280;49381;49.338;8.794;2022-11-18T00:39:44;98448.69;;;11.13
63158;BMP280;49381;49.338;8.794;2022-11-18T00:41:45;98441.91;;;11.15
63158;BMP280;49381;49.338;8.794;2022-11-18T00:43:46;98450.22;;;11.20
63158;BMP280;49381;49.338;8.794;2022-11-18T00:45:46;98448.47;;;11.22
63158;BMP280;49381;49.338;8.794;2022-11-18T00:47:47;98452.81;;;11.17
63158;BMP280;49381;49.338;8.794;2022-11-18T00:49:47;98457.06;;;11.17
63158;BMP280;49381;49.338;8.794;2022-11-18T00:51:47;98455.34;;;11.19
63158;BMP280;49381;49.338;8.794;2022-11-18T00:53:48;98462.97;;;11.17
63158;BMP280;49381;49.338;8.794;2022-11-18T00:55:48;98465.47;;;11.19
63158;BMP280;49381;49.338;8.794;2022-11-18T00:57:50;98463.78;;;11.18
63158;BMP280;49381;49.338;8.794;2022-11-18T00:59:50;98462.00;;;11.21
63158;BMP280;49381;49.338;8.794;2022-11-18T01:01:51;98462.81;;;11.23
63158;BMP280;49381;49.338;8.794;2022-11-18T01:03:51;98460.34;;;11.20
63158;BMP280;49381;49.338;8.794;2022-11-18T01:05:51;98461.31;;;11.16
63158;BMP280;49381;49.338;8.794;2022-11-18T01:07:51;98459.59;;;11.17
63158;BMP280;49381;49.338;8.794;2022-11-18T01:09:52;98461.34;;;11.13
63158;BMP280;49381;49.338;8.794;2022-11-18T01:11:52;98462.19;;;11.15
63158;BMP280;49381;49.338;8.794;2022-11-18T01:13:54;98466.41;;;11.15
63158;BMP280;49381;49.338;8.794;2022-11-18T01:15:56;98456.22;;;11.16
63158;BMP280;49381;49.338;8.794;2022-11-18T01:17:56;98458.81;;;11.15
63158;BMP280;49381;49.338;8.794;2022-11-18T01:19:57;98455.47;;;11.13
63158;BMP280;49381;49.338;8.794;2022-11-18T01:21:57;98457.88;;;11.17
63158;BMP280;49381;49.338;8.794;2022-11-18T01:23:57;98467.19;;;11.17
63158;BMP280;49381;49.338;8.794;2022-11-18T01:26:03;98462.97;;;11.17
63158;BMP280;49381;49.338;8.794;2022-11-18T01:28:03;98473.91;;;11.19
63158;BMP280;49381;49.338;8.794;2022-11-18T01:30:06;98477.22;;;11.21
63158;BMP280;49381;49.338;8.794;2022-11-18T01:32:07;98476.44;;;11.19
63158;BMP280;49381;49.338;8.794;2022-11-18T01:34:07;98483.22;;;11.19
63158;BMP280;49381;49.338;8.794;2022-11-18T01:36:14;98485.75;;;11.19
63158;BMP280;49381;49.338;8.794;2022-11-18T01:38:14;98481.50;;;11.19
63158;BMP280;49381;49.338;8.794;2022-11-18T01:40:15;98480.53;;;11.23
63158;BMP280;49381;49.338;8.794;2022-11-18T01:42:16;98489.03;;;11.22
63158;BMP280;49381;49.338;8.794;2022-11-18T01:46:55;98484.78;;;11.23
63158;BMP280;49381;49.338;8.794;2022-11-18T01:48:59;98489.06;;;11.21
63158;BMP280;49381;49.338;8.794;2022-11-18T01:51:01;98478.06;;;11.22
63158;BMP280;49381;49.338;8.794;2022-11-18T01:53:06;98489.13;;;11.19
63158;BMP280;49381;49.338;8.794;2022-11-18T01:55:11;98490.81;;;11.19
63158;BMP280;49381;49.338;8.794;2022-11-18T01:57:18;98487.41;;;11.20
63158;BMP280;49381;49.338;8.794;2022-11-18T01:59:21;98489.94;;;11.20
63158;BMP280;49381;49.338;8.794;2022-11-18T02:01:23;98493.38;;;11.19
63158;BMP280;49381;49.338;8.794;2022-11-18T02:03:25;98493.38;;;11.17
63158;BMP280;49381;49.338;8.794;2022-11-18T02:05:27;98490.09;;;11.14
63158;BMP280;49381;49.338;8.794;2022-11-18T02:07:28;98489.06;;;11.21
63158;BMP280;49381;49.338;8.794;2022-11-18T02:09:28;98495.75;;;11.25
63158;BMP280;49381;49.338;8.794;2022-11-18T02:11:29;98496.53;;;11.27
63158;BMP280;49381;49.338;8.794;2022-11-18T02:13:29;98488.03;;;11.29
63158;BMP280;49381;49.338;8.794;2022-11-18T02:15:45;98496.56;;;11.25
63158;BMP280;49381;49.338;8.794;2022-11-18T02:17:52;98495.69;;;11.26
63158;BMP280;49381;49.338;8.794;2022-11-18T02:20:16;98500.72;;;11.28
63158;BMP280;49381;49.338;8.794;2022-11-18T02:22:35;98500.84;;;11.23
63158;BMP280;49381;49.338;8.794;2022-11-18T02:24:48;98510.19;;;11.21
63158;BMP280;49381;49.338;8.794;2022-11-18T02:27:12;98500.97;;;11.19
63158;BMP280;49381;49.338;8.794;2022-11-18T02:29:20;98510.19;;;11.21
63158;BMP280;49381;49.338;8.794;2022-11-18T02:31:26;98515.22;;;11.23
63158;BMP280;49381;49.338;8.794;2022-11-18T02:33:37;98505.06;;;11.24
63158;BMP280;49381;49.338;8.794;2022-11-18T02:35:40;98515.22;;;11.23
63158;BMP280;49381;49.338;8.794;2022-11-18T02:37:45;98517.69;;;11.26
63158;BMP280;49381;49.338;8.794;2022-11-18T02:39:51;98512.50;;;11.30
63158;BMP280;49381;49.338;8.794;2022-11-18T02:41:54;98524.41;;;11.27
63158;BMP280;49381;49.338;8.794;2022-11-18T02:43:58;98521.94;;;11.25
63158;BMP280;49381;49.338;8.794;2022-11-18T02:46:05;98522.91;;;11.20
63158;BMP280;49381;49.338;8.794;2022-11-18T02:48:08;98515.41;;;11.15
63158;BMP280;49381;49.338;8.794;2022-11-18T02:50:11;98516.41;;;11.10
63158;BMP280;49381;49.338;8.794;2022-11-18T02:52:13;98516.34;;;11.11
63158;BMP280;49381;49.338;8.794;2022-11-18T02:54:17;98521.38;;;11.13
63158;BMP280;49381;49.338;8.794;2022-11-18T02:56:20;98526.50;;;11.11
63158;BMP280;49381;49.338;8.794;2022-11-18T02:58:21;98518.88;;;11.11
63158;BMP280;49381;49.338;8.794;2022-11-18T03:00:22;98525.50;;;11.17
63158;BMP280;49381;49.338;8.794;2022-11-18T03:02:24;98528.00;;;11.18
63158;BMP280;49381;49.338;8.794;2022-11-18T03:04:25;98533.16;;;11.15
63158;BMP280;49381;49.338;8.794;2022-11-18T03:06:27;98533.06;;;11.18
63158;BMP280;49381;49.338;8.794;2022-11-18T03:08:34;98540.56;;;11.23
63158;BMP280;49381;49.338;8.794;2022-11-18T03:10:41;98539.63;;;11.27
63158;BMP280;49381;49.338;8.794;2022-11-18T03:12:47;98542.97;;;11.29
63158;BMP280;49381;49.338;8.794;2022-11-18T03:15:00;98545.53;;;11.27
63158;BMP280;49381;49.338;8.794;2022-11-18T03:17:07;98537.91;;;11.29
63158;BMP280;49381;49.338;8.794;2022-11-18T03:19:16;98547.91;;;11.33
63158;BMP280;49381;49.338;8.794;2022-11-18T03:21:20;98545.53;;;11.29
63158;BMP280;49381;49.338;8.794;2022-11-18T03:23:26;98551.59;;;11.22
63158;BMP280;49381;49.338;8.794;2022-11-18T03:25:30;98550.84;;;11.17
63158;BMP280;49381;49.338;8.794;2022-11-18T03:27:37;98546.56;;;11.20
63158;BMP280;49381;49.338;8.794;2022-11-18T03:29:42;98555.81;;;11.21
63158;BMP280;49381;49.338;8.794;2022-11-18T03:31:45;98560.97;;;11.18
63158;BMP280;49381;49.338;8.794;2022-11-18T03:33:51;98556.66;;;11.22
63158;BMP280;49381;49.338;8.794;2022-11-18T03:35:56;98555.00;;;11.21
63158;BMP280;49381;49.338;8.794;2022-11-18T03:38:00;98557.69;;;11.15
63158;BMP280;49381;49.338;8.794;2022-11-18T03:40:07;98559.50;;;11.10
63158;BMP280;49381;49.338;8.794;2022-11-18T03:42:11;98566.38;;;11.05
63158;BMP280;49381;49.338;8.794;2022-11-18T03:44:18;98562.91;;;11.07
63158;BMP280;49381;49.338;8.794;2022-11-18T03:46:22;98562.22;;;11.01
63158;BMP280;49381;49.338;8.794;2022-11-18T03:48:25;98564.81;;;11.00
63158;BMP280;49381;49.338;8.794;2022-11-18T03:50:30;98564.94;;;10.94
63158;BMP280;49381;49.338;8.794;2022-11-18T03:52:34;98570.81;;;10.96
63158;BMP280;49381;49.338;8.794;2022-11-18T03:54:38;98574.13;;;10.98
63158;BMP280;49381;49.338;8.794;2022-11-18T03:56:42;98571.59;;;10.98
63158;BMP280;49381;49.338;8.794;2022-11-18T03:58:48;98579.19;;;10.99
63158;BMP280;49381;49.338;8.794;2022-11-18T04:00:51;98591.81;;;11.01
63158;BMP280;49381;49.338;8.794;2022-11-18T04:02:53;98589.22;;;11.04
63158;BMP280;49381;49.338;8.794;2022-11-18T04:04:56;98595.19;;;11.01
63158;BMP280;49381;49.338;8.794;2022-11-18T04:07:01;98584.16;;;11.02
63158;BMP280;49381;49.338;8.794;2022-11-18T04:09:08;98592.69;;;11.00
63158;BMP280;49381;49.338;8.794;2022-11-18T04:11:12;98591.88;;;10.98
63158;BMP280;49381;49.338;8.794;2022-11-18T04:13:17;98593.72;;;10.91
63158;BMP280;49381;49.338;8.794;2022-11-18T04:15:18;98602.03;;;10.96
63158;BMP280;49381;49.338;8.794;2022-11-18T04:17:20;98598.63;;;10.97
63158;BMP280;49381;49.338;8.794;2022-11-18T04:19:21;98603.91;;;10.88
63158;BMP280;49381;49.338;8.794;2022-11-18T04:21:21;98614.16;;;10.84
63158;BMP280;49381;49.338;8.794;2022-11-18T04:23:21;98609.16;;;10.81
63158;BMP280;49381;49.338;8.794;2022-11-18T04:25:23;98598.13;;;10.82
63158;BMP280;49381;49.338;8.794;2022-11-18T04:27:23;98600.44;;;10.94
63158;BMP280;49381;49.338;8.794;2022-11-18T04:29:24;98602.13;;;10.92
63158;BMP280;49381;49.338;8.794;2022-11-18T04:31:24;98598.78;;;10.91
63158;BMP280;49381;49.338;8.794;2022-11-18T04:33:24;98602.31;;;10.84
63158;BMP280;49381;49.338;8.794;2022-11-18T04:35:25;98601.59;;;10.78
63158;BMP280;49381;49.338;8.794;2022-11-18T04:37:25;98602.47;;;10.77
63158;BMP280;49381;49.338;8.794;2022-11-18T04:39:26;98602.41;;;10.80
63158;BMP280;49381;49.338;8.794;2022-11-18T04:41:27;98608.22;;;10.85
63158;BMP280;49381;49.338;8.794;2022-11-18T04:43:28;98611.22;;;10.64
63158;BMP280;49381;49.338;8.794;2022-11-18T04:45:28;98603.66;;;10.61
63158;BMP280;49381;49.338;8.794;2022-11-18T04:47:29;98614.25;;;10.78
63158;BMP280;49381;49.338;8.794;2022-11-18T04:49:30;98611.94;;;10.68
63158;BMP280;49381;49.338;8.794;2022-11-18T04:51:30;98612.59;;;10.77
63158;BMP280;49381;49.338;8.794;2022-11-18T04:53:30;98622.00;;;10.74
63158;BMP280;49381;49.338;8.794;2022-11-18T04:55:34;98628.53;;;10.82
63158;BMP280;49381;49.338;8.794;2022-11-18T04:57:36;98623.50;;;10.80
63158;BMP280;49381;49.338;8.794;2022-11-18T04:59:36;98626.84;;;10.82
63158;BMP280;49381;49.338;8.794;2022-11-18T05:01:36;98622.91;;;10.68
63158;BMP280;49381;49.338;8.794;2022-11-18T05:03:37;98633.59;;;10.82
63158;BMP280;49381;49.338;8.794;2022-11-18T05:05:37;98630.38;;;10.76
63158;BMP280;49381;49.338;8.794;2022-11-18T05:07:37;98632.91;;;10.76
63158;BMP280;49381;49.338;8.794;2022-11-18T05:09:38;98638.78;;;10.78
63158;BMP280;49381;49.338;8.794;2022-11-18T05:11:38;98637.81;;;10.83
63158;BMP280;49381;49.338;8.794;2022-11-18T05:13:40;98645.56;;;10.76
63158;BMP280;49381;49.338;8.794;2022-11-18T05:15:40;98653.00;;;10.83
63158;BMP280;49381;49.338;8.794;2022-11-18T05:17:41;98660.88;;;10.71
63158;BMP280;49381;49.338;8.794;2022-11-18T05:19:41;98665.94;;;10.71
63158;BMP280;49381;49.338;8.794;2022-11-18T05:21:42;98658.16;;;10.80
63158;BMP280;49381;49.338;8.794;2022-11-18T05:23:42;98663.84;;;10.91
63158;BMP280;49381;49.338;8.794;2022-11-18T05:25:42;98675.72;;;10.89
63158;BMP280;49381;49.338;8.794;2022-11-18T05:27:43;98673.50;;;10.74
63158;BMP280;49381;49.338;8.794;2022-11-18T05:29:44;98679.56;;;10.66
63158;BMP280;49381;49.338;8.794;2022-11-18T05:31:45;98683.66;;;10.71
63158;BMP280;49381;49.338;8.794;2022-11-18T05:33:45;98680.22;;;10.75
63158;BMP280;49381;49.338;8.794;2022-11-18T05:35:46;98682.75;;;10.75
63158;BMP280;49381;49.338;8.794;2022-11-18T05:37:46;98685.34;;;10.72
63158;BMP280;49381;49.338;8.794;2022-11-18T05:39:46;98688.81;;;10.67
63158;BMP280;49381;49.338;8.794;2022-11-18T05:41:47;98694.84;;;10.61
63158;BMP280;49381;49.338;8.794;2022-11-18T05:43:47;98702.00;;;10.40
63158;BMP280;49381;49.338;8.794;2022-11-18T05:45:50;98700.81;;;10.57
63158;BMP280;49381;49.338;8.794;2022-11-18T05:47:50;98706.44;;;10.29
63158;BMP280;49381;49.338;8.794;2022-11-18T05:49:50;98704.31;;;10.52
63158;BMP280;49381;49.338;8.794;2022-11-18T05:51:51;98711.88;;;10.55
63158;BMP280;49381;49.338;8.794;2022-11-18T05:53:52;98717.69;;;10.60
63158;BMP280;49381;49.338;8.794;2022-11-18T05:55:56;98710.84;;;10.63
63158;BMP280;49381;49.338;8.794;2022-11-18T05:57:57;98714.13;;;10.70
63158;BMP280;49381;49.338;8.794;2022-11-18T05:59:57;98717.41;;;10.73
63158;BMP280;49381;49.338;8.794;2022-11-18T06:02:01;98727.81;;;10.58
63158;BMP280;49381;49.338;8.794;2022-11-18T06:04:07;98733.75;;;10.59
63158;BMP280;49381;49.338;8.794;2022-11-18T06:06:09;98725.25;;;10.61
63158;BMP280;49381;49.338;8.794;2022-11-18T06:08:10;98731.06;;;10.66
63158;BMP280;49381;49.338;8.794;2022-11-18T06:10:16;98724.31;;;10.65
63158;BMP280;49381;49.338;8.794;2022-11-18T06:12:19;98741.97;;;10.68
63158;BMP280;49381;49.338;8.794;2022-11-18T06:14:26;98739.69;;;10.56
63158;BMP280;49381;49.338;8.794;2022-11-18T06:16:29;98738.66;;;10.66
63158;BMP280;49381;49.338;8.794;2022-11-18T06:18:32;98737.78;;;10.67
63158;BMP280;49381;49.338;8.794;2022-11-18T06:20:35;98748.91;;;10.60
63158;BMP280;49381;49.338;8.794;2022-11-18T06:22:36;98747.06;;;10.68
63158;BMP280;49381;49.338;8.794;2022-11-18T06:24:37;98752.94;;;10.70
63158;BMP280;49381;49.338;8.794;2022-11-18T06:26:38;98747.91;;;10.69
63158;BMP280;49381;49.338;8.794;2022-11-18T06:28:39;98757.47;;;10.53
63158;BMP280;49381;49.338;8.794;2022-11-18T06:30:40;98751.50;;;10.57
63158;BMP280;49381;49.338;8.794;2022-11-18T06:32:41;98763.41;;;10.53
63158;BMP280;49381;49.338;8.794;2022-11-18T06:34:42;98755.69;;;10.60
63158;BMP280;49381;49.338;8.794;2022-11-18T06:36:43;98761.66;;;10.56
63158;BMP280;49381;49.338;8.794;2022-11-18T06:38:43;98770.09;;;10.56
63158;BMP280;49381;49.338;8.794;2022-11-18T06:40:43;98771.75;;;10.57
63158;BMP280;49381;49.338;8.794;2022-11-18T06:42:44;98785.25;;;10.59
63158;BMP280;49381;49.338;8.794;2022-11-18T06:44:44;98776.81;;;10.57
63158;BMP280;49381;49.338;8.794;2022-11-18T06:46:44;98783.63;;;10.55
63158;BMP280;49381;49.338;8.794;2022-11-18T06:48:45;98790.34;;;10.56
63158;BMP280;49381;49.338;8.794;2022-11-18T06:50:46;98795.31;;;10.62
63158;BMP280;49381;49.338;8.794;2022-11-18T06:52:47;98795.38;;;10.58
63158;BMP280;49381;49.338;8.794;2022-11-18T06:54:47;98803.88;;;10.55
63158;BMP280;49381;49.338;8.794;2022-11-18T06:56:47;98803.09;;;10.52
63158;BMP280;49381;49.338;8.794;2022-11-18T06:58:52;98808.03;;;10.59
63158;BMP280;49381;49.338;8.794;2022-11-18T07:00:52;98813.94;;;10.58
63158;BMP280;49381;49.338;8.794;2022-11-18T07:02:53;98807.22;;;10.59
63158;BMP280;49381;49.338;8.794;2022-11-18T07:04:53;98822.41;;;10.57
63158;BMP280;49381;49.338;8.794;2022-11-18T07:06:55;98821.50;;;10.61
63158;BMP280;49381;49.338;8.794;2022-11-18T07:08:55;98827.63;;;10.50
63158;BMP280;49381;49.338;8.794;2022-11-18T07:10:56;98830.16;;;10.49
63158;BMP280;49381;49.338;8.794;2022-11-18T07:12:56;98835.16;;;10.53
63158;BMP280;49381;49.338;8.794;2022-11-18T07:14:56;98841.84;;;10.57
63158;BMP280;49381;49.338;8.794;2022-11-18T07:16:57;98839.25;;;10.61
63158;BMP280;49381;49.338;8.794;2022-11-18T07:18:57;98841.78;;;10.61
63158;BMP280;49381;49.338;8.794;2022-11-18T07:21:00;98848.53;;;10.61
63158;BMP280;49381;49.338;8.794;2022-11-18T07:23:02;98841.97;;;10.50
63158;BMP280;49381;49.338;8.794;2022-11-18T07:25:02;98847.06;;;10.48
63158;BMP280;49381;49.338;8.794;2022-11-18T07:27:03;98847.91;;;10.47
63158;BMP280;49381;49.338;8.794;2022-11-18T07:29:04;98848.63;;;10.56
63158;BMP280;49381;49.338;8.794;2022-11-18T07:31:06;98859.59;;;10.55
63158;BMP280;49381;49.338;8.794;2022-11-18T07:33:06;98860.44;;;10.56
63158;BMP280;49381;49.338;8.794;2022-11-18T07:35:07;98867.97;;;10.60
63158;BMP280;49381;49.338;8.794;2022-11-18T07:37:08;98867.97;;;10.60
63158;BMP280;49381;49.338;8.794;2022-11-18T07:39:10;98872.16;;;10.61
63158;BMP280;49381;49.338;8.794;2022-11-18T07:41:11;98875.59;;;10.59
63158;BMP280;49381;49.338;8.794;2022-11-18T07:43:12;98878.09;;;10.60
63158;BMP280;49381;49.338;8.794;2022-11-18T07:45:12;98879.69;;;10.66
63158;BMP280;49381;49.338;8.794;2022-11-18T07:47:13;98883.06;;;10.66
63158;BMP280;49381;49.338;8.794;2022-11-18T07:49:13;98882.34;;;10.58
63158;BMP280;49381;49.338;8.794;2022-11-18T07:51:15;98883.53;;;10.37
63158;BMP280;49381;49.338;8.794;2022-11-18T07:53:15;98889.47;;;10.36
63158;BMP280;49381;49.338;8.794;2022-11-18T07:55:17;98890.78;;;10.05
63158;BMP280;49381;49.338;8.794;2022-11-18T07:57:17;98901.03;;;9.94
63158;BMP280;49381;49.338;8.794;2022-11-18T07:59:18;98905.06;;;10.08
63158;BMP280;49381;49.338;8.794;2022-11-18T08:01:19;98902.34;;;10.21
63158;BMP280;49381;49.338;8.794;2022-11-18T08:03:24;98903.03;;;10.32
63158;BMP280;49381;49.338;8.794;2022-11-18T08:05:24;98912.16;;;10.42
63158;BMP280;49381;49.338;8.794;2022-11-18T08:07:25;98908.78;;;10.43
63158;BMP280;49381;49.338;8.794;2022-11-18T08:09:25;98919.84;;;10.37
63158;BMP280;49381;49.338;8.794;2022-11-18T08:11:27;98912.13;;;10.45
63158;BMP280;49381;49.338;8.794;2022-11-18T08:13:27;98917.13;;;10.49
63158;BMP280;49381;49.338;8.794;2022-11-18T08:15:28;98914.56;;;10.51
63158;BMP280;49381;49.338;8.794;2022-11-18T08:17:28;98922.44;;;10.34
63158;BMP280;49381;49.338;8.794;2022-11-18T08:19:28;98935.50;;;10.05
63158;BMP280;49381;49.338;8.794;2022-11-18T08:21:29;98927.97;;;10.01
63158;BMP280;49381;49.338;8.794;2022-11-18T08:23:29;98926.13;;;10.11
63158;BMP280;49381;49.338;8.794;2022-11-18T08:25:30;98936.13;;;10.20
63158;BMP280;49381;49.338;8.794;2022-11-18T08:27:32;98931.06;;;10.20
63158;BMP280;49381;49.338;8.794;2022-11-18T08:29:32;98933.66;;;10.16
63158;BMP280;49381;49.338;8.794;2022-11-18T08:31:32;98934.53;;;10.13
63158;BMP280;49381;49.338;8.794;2022-11-18T08:33:33;98933.50;;;10.26
63158;BMP280;49381;49.338;8.794;2022-11-18T08:35:33;98945.22;;;10.34
63158;BMP280;49381;49.338;8.794;2022-11-18T08:37:33;98935.16;;;10.28
63158;BMP280;49381;49.338;8.794;2022-11-18T08:39:34;98940.97;;;10.33
63158;BMP280;49381;49.338;8.794;2022-11-18T08:41:37;98941.13;;;10.25
63158;BMP280;49381;49.338;8.794;2022-11-18T08:43:39;98941.00;;;10.35
63158;BMP280;49381;49.338;8.794;2022-11-18T08:45:41;98944.22;;;10.43
63158;BMP280;49381;49.338;8.794;2022-11-18T08:47:42;98946.00;;;10.38
63158;BMP280;49381;49.338;8.794;2022-11-18T08:49:42;98943.41;;;10.42
63158;BMP280;49381;49.338;8.794;2022-11-18T08:51:42;98950.16;;;10.42
63158;BMP280;49381;49.338;8.794;2022-11-18T08:53:43;98940.91;;;10.41
63158;BMP280;49381;49.338;8.794;2022-11-18T08:55:43;98943.28;;;10.50
63158;BMP280;49381;49.338;8.794;2022-11-18T08:57:43;98947.44;;;10.53
63158;BMP280;49381;49.338;8.794;2022-11-18T08:59:45;98942.31;;;10.59
63158;BMP280;49381;49.338;8.794;2022-11-18T09:01:45;98945.66;;;10.58
63158;BMP280;49381;49.338;8.794;2022-11-18T09:03:46;98951.72;;;10.49
63158;BMP280;49381;49.338;8.794;2022-11-18T09:05:46;98954.19;;;10.54
63158;BMP280;49381;49.338;8.794;2022-11-18T09:07:47;98958.78;;;10.30
63158;BMP280;49381;49.338;8.794;2022-11-18T09:09:47;98956.81;;;10.47
63158;BMP280;49381;49.338;8.794;2022-11-18T09:11:47;98962.59;;;10.56
63158;BMP280;49381;49.338;8.794;2022-11-18T09:13:51;98939.00;;;10.54
63158;BMP280;49381;49.338;8.794;2022-11-18T09:15:53;98960.97;;;10.54
63158;BMP280;49381;49.338;8.794;2022-11-18T09:17:53;98962.59;;;10.56
63158;BMP280;49381;49.338;8.794;2022-11-18T09:19:53;98964.25;;;10.60
63158;BMP280;49381;49.338;8.794;2022-11-18T09:21:54;98964.56;;;10.40
63158;BMP280;49381;49.338;8.794;2022-11-18T09:23:54;98961.94;;;10.46
63158;BMP280;49381;49.338;8.794;2022-11-18T09:25:57;98963.56;;;10.50
63158;BMP280;49381;49.338;8.794;2022-11-18T09:27:58;98965.06;;;10.61
63158;BMP280;49381;49.338;8.794;2022-11-18T09:29:58;98959.88;;;10.68
63158;BMP280;49381;49.338;8.794;2022-11-18T09:32:00;98968.44;;;10.61
63158;BMP280;49381;49.338;8.794;2022-11-18T09:34:01;98976.81;;;10.66
63158;BMP280;49381;49.338;8.794;2022-11-18T09:36:01;98968.22;;;10.76
63158;BMP280;49381;49.338;8.794;2022-11-18T09:38:01;98968.28;;;10.72
63158;BMP280;49381;49.338;8.794;2022-11-18T09:40:02;98972.38;;;10.80
63158;BMP280;49381;49.338;8.794;2022-11-18T09:42:12;98971.38;;;10.90
63158;BMP280;49381;49.338;8.794;2022-11-18T09:44:40;98973.19;;;10.82
63158;BMP280;49381;49.338;8.794;2022-11-18T09:46:52;98978.16;;;10.86
63158;BMP280;49381;49.338;8.794;2022-11-18T09:48:59;98988.22;;;10.94
63158;BMP280;49381;49.338;8.794;2022-11-18T09:51:04;98989.03;;;10.93
63158;BMP280;49381;49.338;8.794;2022-11-18T09:53:10;98988.97;;;10.97
63158;BMP280;49381;49.338;8.794;2022-11-18T09:55:14;98988.97;;;10.99
63158;BMP280;49381;49.338;8.794;2022-11-18T09:57:18;98990.63;;;11.00
63158;BMP280;49381;49.338;8.794;2022-11-18T09:59:20;98995.00;;;10.90
63158;BMP280;49381;49.338;8.794;2022-11-18T10:01:21;98997.50;;;10.92
63158;BMP280;49381;49.338;8.794;2022-11-18T10:03:25;98999.91;;;11.01
63158;BMP280;49381;49.338;8.794;2022-11-18T10:05:28;99002.41;;;11.04
63158;BMP280;49381;49.338;8.794;2022-11-18T10:07:34;98999.00;;;11.04
63158;BMP280;49381;49.338;8.794;2022-11-18T10:09:39;98998.91;;;11.10
63158;BMP280;49381;49.338;8.794;2022-11-18T10:11:43;99002.63;;;10.90
63158;BMP280;49381;49.338;8.794;2022-11-18T10:13:53;99000.13;;;10.89
63158;BMP280;49381;49.338;8.794;2022-11-18T10:15:59;99005.81;;;11.01
63158;BMP280;49381;49.338;8.794;2022-11-18T10:18:14;99009.03;;;11.10
63158;BMP280;49381;49.338;8.794;2022-11-18T10:20:31;99007.97;;;11.25
63158;BMP280;49381;49.338;8.794;2022-11-18T10:22:38;99007.16;;;11.21
63158;BMP280;49381;49.338;8.794;2022-11-18T10:24:42;98998.56;;;11.28
63158;BMP280;49381;49.338;8.794;2022-11-18T10:26:45;99002.13;;;11.20
63158;BMP280;49381;49.338;8.794;2022-11-18T10:28:45;99009.56;;;11.30
63158;BMP280;49381;49.338;8.794;2022-11-18T10:30:46;99014.13;;;11.10
63158;BMP280;49381;49.338;8.794;2022-11-18T10:32:57;99007.13;;;11.24
63158;BMP280;49381;49.338;8.794;2022-11-18T10:34:58;99012.97;;;11.29
63158;BMP280;49381;49.338;8.794;2022-11-18T10:37:01;99013.75;;;11.31
63158;BMP280;49381;49.338;8.794;2022-11-18T10:39:10;99014.56;;;11.33
63158;BMP280;49381;49.338;8.794;2022-11-18T10:41:13;99017.03;;;11.39
63158;BMP280;49381;49.338;8.794;2022-11-18T10:43:44;99017.03;;;11.39
63158;BMP280;49381;49.338;8.794;2022-11-18T10:45:44;99015.19;;;11.47
63158;BMP280;49381;49.338;8.794;2022-11-18T10:47:56;99016.06;;;11.46
63158;BMP280;49381;49.338;8.794;2022-11-18T10:49:58;99017.81;;;11.42
63158;BMP280;49381;49.338;8.794;2022-11-18T10:52:08;99021.91;;;11.51
63158;BMP280;49381;49.338;8.794;2022-11-18T10:54:14;99018.56;;;11.49
63158;BMP280;49381;49.338;8.794;2022-11-18T10:56:15;99020.13;;;11.55
63158;BMP280;49381;49.338;8.794;2022-11-18T10:58:15;99011.03;;;11.43
63158;BMP280;49381;49.338;8.794;2022-11-18T11:00:46;99014.44;;;11.42
63158;BMP280;49381;49.338;8.794;2022-11-18T11:02:46;99027.19;;;11.36
63158;BMP280;49381;49.338;8.794;2022-11-18T11:04:48;99021.13;;;11.46
63158;BMP280;49381;49.338;8.794;2022-11-18T11:06:49;99015.91;;;11.53
63158;BMP280;49381;49.338;8.794;2022-11-18T11:08:52;99017.53;;;11.57
63158;BMP280;49381;49.338;8.794;2022-11-18T11:10:53;99018.44;;;11.53
63158;BMP280;49381;49.338;8.794;2022-11-18T11:12:57;99017.50;;;11.60
63158;BMP280;49381;49.338;8.794;2022-11-18T11:15:01;99019.13;;;11.64
63158;BMP280;49381;49.338;8.794;2022-11-18T11:17:08;99015.75;;;11.63
63158;BMP280;49381;49.338;8.794;2022-11-18T11:19:10;99022.00;;;11.45
63158;BMP280;49381;49.338;8.794;2022-11-18T11:21:12;99030.31;;;11.53
63158;BMP280;49381;49.338;8.794;2022-11-18T11:23:13;99015.84;;;11.57
63158;BMP280;49381;49.338;8.794;2022-11-18T11:25:26;99028.53;;;11.57
63158;BMP280;49381;49.338;8.794;2022-11-18T11:27:40;99033.59;;;11.57
63158;BMP280;49381;49.338;8.794;2022-11-18T11:30:04;99032.81;;;11.55
63158;BMP280;49381;49.338;8.794;2022-11-18T11:32:12;99031.81;;;11.62
63158;BMP280;49381;49.338;8.794;2022-11-18T11:34:19;99029.28;;;11.62
63158;BMP280;49381;49.338;8.794;2022-11-18T11:36:29;99035.31;;;11.58
63158;BMP280;49381;49.338;8.794;2022-11-18T11:38:40;99040.41;;;11.55
63158;BMP280;49381;49.338;8.794;2022-11-18T11:40:55;99041.22;;;11.57
63158;BMP280;49381;49.338;8.794;2022-11-18T11:43:11;99037.03;;;11.55
63158;BMP280;49381;49.338;8.794;2022-11-18T11:45:19;99037.69;;;11.66
63158;BMP280;49381;49.338;8.794;2022-11-18T11:47:29;99040.25;;;11.64
63158;BMP280;49381;49.338;8.794;2022-11-18T11:49:42;99033.41;;;11.68
63158;BMP280;49381;49.338;8.794;2022-11-18T11:51:50;99036.81;;;11.68